createdAt,value
2023-06-03T00:00:26.170Z,59.85
2023-06-03T00:05:48.981Z,60.09
2023-06-03T00:10:51.914Z,59.94
2023-06-03T00:15:54.819Z,59.95
2023-06-03T00:20:57.737Z,59.96
2023-06-03T00:26:00.620Z,60.07
2023-06-03T00:31:03.825Z,60.12
2023-06-03T00:36:07.464Z,60.13
2023-06-03T00:41:10.336Z,59.96
2023-06-03T00:46:14.305Z,59.95
2023-06-03T00:51:17.672Z,60.08
2023-06-03T00:56:20.734Z,60.19
2023-06-03T01:01:25.705Z,60.30
2023-06-03T01:06:35.961Z,60.01
2023-06-03T01:11:47.758Z,60.03
2023-06-03T01:16:52.130Z,60.03
2023-06-03T01:22:01.632Z,59.96
2023-06-03T01:27:04.829Z,59.96
2023-06-03T01:32:12.878Z,59.89
2023-06-03T01:37:15.741Z,59.86
2023-06-03T01:42:18.618Z,60.41
2023-06-03T01:47:21.538Z,60.26
2023-06-03T01:52:24.469Z,60.24
2023-06-03T01:57:28.305Z,60.21
2023-06-03T02:02:31.444Z,60.38
2023-06-03T02:07:34.416Z,60.25
2023-06-03T02:12:37.328Z,60.42
2023-06-03T02:17:41.845Z,60.21
2023-06-03T02:22:44.865Z,59.95
2023-06-03T02:27:47.675Z,59.78
2023-06-03T02:32:50.547Z,59.78
2023-06-03T02:37:53.505Z,59.74
2023-06-03T02:42:56.361Z,59.73
2023-06-03T02:47:59.211Z,59.44
2023-06-03T02:53:02.681Z,59.06
2023-06-03T02:58:05.829Z,59.15
2023-06-03T03:03:08.722Z,59.54
2023-06-03T03:08:11.693Z,59.49
2023-06-03T03:13:14.547Z,59.46
2023-06-03T03:18:17.577Z,59.48
2023-06-03T03:23:20.618Z,59.53
2023-06-03T03:28:23.545Z,57.32
2023-06-03T03:33:26.534Z,53.31
2023-06-03T03:38:29.408Z,49.58
2023-06-03T03:43:32.416Z,49.10
2023-06-03T03:48:35.275Z,46.23
2023-06-03T03:53:38.197Z,42.99
2023-06-03T03:58:42.502Z,41.68
2023-06-03T04:03:47.311Z,39.12
2023-06-03T04:08:52.704Z,36.56
2023-06-03T04:13:57.041Z,36.37
2023-06-03T04:19:00.047Z,35.22
2023-06-03T04:24:06.239Z,34.35
2023-06-03T04:29:10.799Z,34.40
2023-06-03T04:34:13.711Z,33.61
2023-06-03T04:39:18.867Z,33.03
2023-06-03T04:44:22.369Z,32.85
2023-06-03T04:49:25.235Z,34.85
2023-06-03T04:54:28.078Z,36.86
2023-06-03T04:59:31.025Z,38.47
2023-06-03T05:04:35.434Z,40.46
2023-06-03T05:09:38.542Z,41.53
2023-06-03T05:14:41.471Z,42.71
2023-06-03T05:19:44.304Z,43.43
2023-06-03T05:24:47.143Z,44.00
2023-06-03T05:29:49.940Z,44.17
2023-06-03T05:34:55.179Z,44.99
2023-06-03T05:39:58.025Z,45.53
2023-06-03T05:45:00.908Z,45.89
2023-06-03T05:50:04.279Z,46.65
2023-06-03T05:55:07.847Z,47.16
2023-06-03T06:00:11.329Z,47.00
2023-06-03T06:05:14.459Z,47.12
2023-06-03T06:10:17.282Z,47.25
2023-06-03T06:15:20.157Z,46.98
2023-06-03T06:20:23.093Z,47.23
2023-06-03T06:25:26.026Z,46.69
2023-06-03T06:30:28.886Z,46.58
2023-06-03T06:35:31.767Z,47.17
2023-06-03T06:40:35.773Z,46.66
2023-06-03T06:45:38.901Z,48.52
2023-06-03T06:50:57.644Z,47.62
2023-06-03T06:56:08.984Z,45.72
2023-06-03T07:01:11.999Z,46.38
2023-06-03T07:06:15.235Z,45.75
2023-06-03T07:11:18.154Z,45.73
2023-06-03T07:16:22.393Z,45.26
2023-06-03T07:21:26.653Z,45.23
2023-06-03T07:26:33.059Z,44.78
2023-06-03T07:36:44.845Z,45.62
2023-06-03T07:41:52.026Z,44.86
2023-06-03T07:46:59.440Z,44.71
2023-06-03T07:52:02.479Z,45.63
2023-06-03T07:57:06.697Z,44.73
2023-06-03T08:02:13.097Z,44.84
2023-06-03T08:07:17.472Z,44.31
2023-06-03T08:12:31.341Z,42.37
2023-06-03T08:17:42.074Z,42.84
2023-06-03T08:22:45.873Z,43.14
2023-06-03T08:27:49.595Z,43.32
2023-06-03T08:32:52.624Z,42.88
2023-06-03T08:37:56.187Z,43.34
2023-06-03T08:43:03.488Z,43.66
2023-06-03T08:48:33.469Z,42.94
2023-06-03T08:53:53.295Z,42.89
2023-06-03T08:59:02.791Z,42.99
2023-06-03T09:04:06.348Z,43.11
2023-06-03T09:09:10.571Z,44.24
2023-06-03T09:14:14.482Z,44.45
2023-06-03T09:19:18.721Z,43.41
2023-06-03T09:24:21.738Z,43.63
2023-06-03T09:29:25.865Z,42.36
2023-06-03T09:34:30.116Z,42.99
2023-06-03T09:39:34.861Z,42.65
2023-06-03T09:44:56.979Z,42.11
2023-06-03T09:50:13.362Z,40.11
2023-06-03T09:55:16.819Z,38.28
2023-06-03T10:00:19.948Z,38.43
2023-06-03T10:05:29.998Z,40.28
2023-06-03T10:10:37.063Z,40.21
2023-06-03T10:15:41.329Z,41.29
2023-06-03T10:20:44.854Z,41.26
2023-06-03T10:25:53.978Z,38.87
2023-06-03T10:30:59.226Z,38.14
2023-06-03T10:36:04.906Z,40.98
2023-06-03T10:41:10.758Z,41.15
2023-06-03T10:46:14.350Z,41.06
2023-06-03T10:51:51.790Z,40.67
2023-06-03T10:57:10.145Z,38.27
2023-06-03T11:02:14.416Z,38.93
2023-06-03T11:07:33.146Z,39.01
2023-06-03T11:12:50.679Z,38.76
2023-06-03T11:18:31.203Z,39.42
2023-06-03T11:23:47.032Z,38.39
2023-06-03T11:28:50.201Z,38.06
2023-06-03T11:34:27.545Z,39.00
2023-06-03T11:40:07.372Z,39.85
2023-06-03T11:45:23.018Z,39.49
2023-06-03T11:50:33.586Z,39.48
2023-06-03T11:55:36.848Z,39.76
2023-06-03T12:00:39.964Z,38.42
2023-06-03T12:06:03.212Z,38.06
2023-06-03T12:11:06.491Z,38.09
2023-06-03T12:16:09.732Z,38.25
2023-06-03T12:21:23.417Z,39.27
2023-06-03T12:26:27.091Z,39.48
2023-06-03T12:31:30.280Z,39.12
2023-06-03T12:36:51.205Z,39.11
2023-06-03T12:41:55.783Z,39.68
2023-06-03T12:47:03.819Z,39.59
2023-06-03T12:52:37.760Z,39.10
2023-06-03T12:57:43.484Z,38.48
2023-06-03T13:02:49.065Z,38.81
2023-06-03T13:07:52.422Z,39.05
2023-06-03T13:12:55.422Z,39.82
2023-06-03T13:17:58.544Z,39.67
2023-06-03T13:23:01.581Z,39.95
2023-06-03T13:28:04.566Z,40.16
2023-06-03T13:33:07.973Z,38.44
2023-06-03T13:38:15.234Z,38.22
2023-06-03T13:43:18.255Z,38.51
2023-06-03T13:48:21.274Z,38.61
2023-06-03T13:53:24.250Z,38.73
2023-06-03T13:58:27.294Z,39.50
2023-06-03T14:03:30.270Z,39.57
2023-06-03T14:08:34.675Z,38.99
2023-06-03T14:13:37.700Z,38.63
2023-06-03T14:18:40.708Z,38.52
2023-06-03T14:23:43.690Z,38.43
2023-06-03T14:28:47.219Z,39.26
2023-06-03T14:33:50.472Z,39.40
2023-06-03T14:38:53.540Z,38.94
2023-06-03T14:43:59.804Z,39.55
2023-06-03T14:49:02.854Z,39.65
2023-06-03T14:54:06.773Z,39.09
2023-06-03T14:59:09.782Z,37.90
2023-06-03T15:04:14.903Z,38.10
2023-06-03T15:09:18.152Z,38.27
2023-06-03T15:14:21.058Z,38.13
2023-06-03T15:19:24.007Z,38.33
2023-06-03T15:24:27.161Z,37.64
2023-06-03T15:29:30.264Z,37.95
2023-06-03T15:34:33.402Z,38.26
2023-06-03T15:39:36.456Z,38.17
2023-06-03T15:44:39.332Z,38.46
2023-06-03T15:49:42.337Z,38.83
2023-06-03T15:54:45.844Z,38.54
2023-06-03T15:59:48.842Z,39.30
2023-06-03T16:04:51.894Z,39.21
2023-06-03T16:09:54.881Z,38.75
2023-06-03T16:14:58.106Z,37.85
2023-06-03T16:20:01.502Z,36.67
2023-06-03T16:25:05.823Z,37.52
2023-06-03T16:30:10.202Z,37.38
2023-06-03T16:35:13.246Z,37.64
2023-06-03T16:40:16.295Z,37.92
2023-06-03T16:45:19.322Z,37.90
2023-06-03T16:50:22.304Z,38.06
2023-06-03T16:55:25.382Z,38.12
2023-06-03T17:00:28.424Z,38.28
2023-06-03T17:05:32.519Z,38.77
2023-06-03T17:10:36.731Z,39.30
2023-06-03T17:15:39.723Z,39.41
2023-06-03T17:20:42.804Z,39.49
2023-06-03T17:25:46.584Z,40.29
2023-06-03T17:30:49.888Z,40.51
2023-06-03T17:35:52.798Z,40.88
2023-06-03T17:40:57.659Z,40.96
2023-06-03T17:46:01.096Z,41.67
2023-06-03T17:51:04.690Z,42.45
2023-06-03T17:56:08.318Z,42.46
2023-06-03T18:01:11.839Z,43.03
2023-06-03T18:06:14.844Z,43.39
2023-06-03T18:11:17.886Z,44.21
2023-06-03T18:16:21.025Z,44.81
2023-06-03T18:21:24.074Z,44.67
2023-06-03T18:26:29.072Z,44.75
2023-06-03T18:31:32.451Z,45.11
2023-06-03T18:36:35.458Z,45.54
2023-06-03T18:41:38.513Z,45.99
2023-06-03T18:46:41.583Z,46.34
2023-06-03T18:51:44.585Z,47.15
2023-06-03T18:56:47.597Z,47.44
2023-06-03T19:01:51.373Z,48.38
2023-06-03T19:06:54.581Z,48.28
2023-06-03T19:11:57.597Z,48.77
2023-06-03T19:17:01.018Z,48.78
2023-06-03T19:22:04.089Z,50.72
2023-06-03T19:27:07.600Z,51.18
2023-06-03T19:32:10.572Z,52.77
2023-06-03T19:37:13.596Z,53.30
2023-06-03T19:42:16.642Z,53.77
2023-06-03T19:47:19.598Z,53.77
2023-06-03T19:52:22.613Z,53.17
2023-06-03T19:57:25.697Z,52.73
2023-06-03T20:02:28.741Z,53.53
2023-06-03T20:07:35.515Z,54.16
2023-06-03T20:12:38.501Z,55.18
2023-06-03T20:17:41.593Z,55.33
2023-06-03T20:22:44.920Z,55.08
2023-06-03T20:27:50.497Z,55.94
2023-06-03T20:32:58.261Z,56.25
2023-06-03T20:38:04.571Z,56.08
2023-06-03T20:43:07.609Z,56.62
2023-06-03T20:48:11.126Z,56.74
2023-06-03T20:53:14.133Z,57.15
2023-06-03T20:58:17.461Z,57.21
2023-06-03T21:03:20.812Z,57.76
2023-06-03T21:08:23.804Z,58.26
2023-06-03T21:13:27.545Z,58.32
2023-06-03T21:18:30.615Z,58.22
2023-06-03T21:23:33.623Z,58.35
2023-06-03T21:28:36.825Z,58.43
2023-06-03T21:33:39.891Z,58.68
2023-06-03T21:38:42.892Z,58.82
2023-06-03T21:43:45.895Z,58.94
2023-06-03T21:48:49.232Z,59.35
2023-06-03T21:53:53.667Z,59.49
2023-06-03T21:58:56.655Z,59.46
2023-06-03T22:03:59.809Z,59.67
2023-06-03T22:09:03.049Z,59.68
2023-06-03T22:14:06.359Z,59.75
2023-06-03T22:19:09.473Z,59.94
2023-06-03T22:24:12.668Z,59.91
2023-06-03T22:29:15.721Z,59.94
2023-06-03T22:34:18.696Z,60.07
2023-06-03T22:39:21.752Z,60.19
2023-06-03T22:44:24.946Z,60.66
2023-06-03T22:49:27.930Z,60.73
2023-06-03T22:54:31.044Z,60.89
2023-06-03T22:59:34.053Z,61.08
2023-06-03T23:04:37.058Z,61.43
2023-06-03T23:09:40.193Z,61.62
2023-06-03T23:14:43.202Z,61.72
2023-06-03T23:19:46.230Z,61.90
2023-06-03T23:24:49.259Z,62.17
2023-06-03T23:29:52.252Z,66.61
2023-06-03T23:34:55.235Z,61.32
2023-06-03T23:39:58.548Z,52.63
2023-06-03T23:45:02.767Z,53.20
2023-06-03T23:50:06.943Z,54.46
2023-06-03T23:55:10.191Z,55.53
